Time;durP1;ratioP1;P1;durP2;ratioP2;P2;SDS_P1;SDS_P2;PMS_P1;PMS_P2;Temp;Humidity;BMP_temperature;BMP_pressure;BME280_temperature;BME280_humidity;BME280_pressure;Samples;Min_cycle;Max_cycle;Signal;HPM_P1;HPM_P2
2021/10/20 00:01:14;;;;;;;48.50;31.52;;;;;;;8.56;100.00;98873.13;4972689;28;20035;-74
2021/10/20 00:03:40;;;;;;;45.00;30.55;;;;;;;8.45;100.00;98865.97;4972630;28;20039;-74
2021/10/20 00:06:06;;;;;;;48.33;30.30;;;;;;;8.40;100.00;98864.00;4972620;28;20062;-74
2021/10/20 00:08:31;;;;;;;48.17;31.23;;;;;;;8.35;100.00;98860.41;4974847;28;20039;-74
2021/10/20 00:10:57;;;;;;;48.75;30.38;;;;;;;8.32;100.00;98871.81;4975956;28;20102;-75
2021/10/20 00:13:22;;;;;;;45.30;29.73;;;;;;;8.27;100.00;98867.09;4965318;28;20035;-75
2021/10/20 00:15:48;;;;;;;50.25;29.80;;;;;;;8.31;100.00;98867.44;4972721;28;20034;-74
2021/10/20 00:18:14;;;;;;;48.40;30.98;;;;;;;8.21;100.00;98865.41;4972759;28;20022;-74
2021/10/20 00:20:39;;;;;;;48.58;30.88;;;;;;;8.21;100.00;98862.69;4972287;28;20377;-74
2021/10/20 00:23:05;;;;;;;50.05;32.78;;;;;;;8.18;100.00;98863.19;4972271;28;20035;-74
2021/10/20 00:25:31;;;;;;;53.97;32.38;;;;;;;8.23;100.00;98862.44;4972217;28;20074;-74
2021/10/20 00:27:57;;;;;;;51.85;30.70;;;;;;;8.18;100.00;98852.31;4972137;28;20026;-74
2021/10/20 00:30:23;;;;;;;51.28;31.50;;;;;;;8.14;100.00;98853.09;4964149;28;20015;-74
2021/10/20 00:32:49;;;;;;;49.00;30.60;;;;;;;8.14;100.00;98864.00;4972387;28;20022;-74
2021/10/20 00:35:14;;;;;;;47.42;32.30;;;;;;;8.04;100.00;98857.34;4972431;28;20033;-74
2021/10/20 00:37:40;;;;;;;43.83;27.80;;;;;;;7.97;100.00;98853.19;4973460;28;20042;-74
2021/10/20 00:40:06;;;;;;;48.55;29.02;;;;;;;7.98;100.00;98860.28;4981495;28;20155;-74
2021/10/20 00:42:33;;;;;;;50.53;30.35;;;;;;;7.91;100.00;98854.22;4973324;28;20030;-75
2021/10/20 00:45:00;;;;;;;49.78;30.48;;;;;;;7.85;100.00;98845.16;4972546;28;20030;-75
2021/10/20 00:47:27;;;;;;;48.35;30.38;;;;;;;7.81;100.00;98843.19;4972660;28;20392;-74
2021/10/20 00:49:55;;;;;;;44.00;28.42;;;;;;;7.81;100.00;98840.47;4972003;28;20050;-74
2021/10/20 00:52:23;;;;;;;50.70;29.05;;;;;;;7.86;100.00;98835.09;4971228;28;20488;-75
2021/10/20 00:54:52;;;;;;;47.55;30.42;;;;;;;7.74;100.00;98842.56;4971994;28;20015;-75
2021/10/20 00:57:20;;;;;;;45.05;29.75;;;;;;;7.75;100.00;98844.22;4963185;28;20451;-75
2021/10/20 00:59:45;;;;;;;45.78;30.20;;;;;;;7.74;100.00;98837.94;4970604;28;20023;-74
2021/10/20 01:02:11;;;;;;;43.40;28.52;;;;;;;7.75;100.00;98830.59;4971960;28;20038;-75
2021/10/20 01:04:37;;;;;;;51.53;28.92;;;;;;;7.73;100.00;98822.69;4971756;28;20027;-74
2021/10/20 01:07:04;;;;;;;44.72;28.00;;;;;;;7.75;100.00;98825.16;4971693;28;20110;-74
2021/10/20 01:09:30;;;;;;;56.03;28.95;;;;;;;7.70;100.00;98827.84;4971811;28;20027;-74
2021/10/20 01:11:56;;;;;;;48.30;30.77;;;;;;;7.64;100.00;98826.13;4972007;28;20042;-74
2021/10/20 01:14:21;;;;;;;44.92;29.15;;;;;;;7.70;100.00;98825.09;4963304;28;20031;-74
2021/10/20 01:16:48;;;;;;;49.80;30.20;;;;;;;7.78;100.00;98822.75;4971657;28;20030;-74
2021/10/20 01:19:14;;;;;;;52.53;30.15;;;;;;;7.79;100.00;98829.84;4970682;28;20038;-74
2021/10/20 01:21:40;;;;;;;46.92;28.33;;;;;;;7.91;100.00;98832.41;4971841;28;20038;-74
2021/10/20 01:24:06;;;;;;;50.50;29.52;;;;;;;7.89;100.00;98829.94;4971873;28;20027;-74
2021/10/20 01:26:32;;;;;;;53.88;30.83;;;;;;;7.87;100.00;98832.09;4981065;28;20019;-74
2021/10/20 01:28:58;;;;;;;53.70;30.83;;;;;;;7.97;100.00;98839.56;4992380;28;20050;-74
2021/10/20 01:31:24;;;;;;;50.20;30.63;;;;;;;7.97;100.00;98829.50;4976237;28;20023;-74
2021/10/20 01:33:49;;;;;;;50.35;31.17;;;;;;;8.08;100.00;98822.25;4972024;28;20049;-75
2021/10/20 01:36:15;;;;;;;60.35;30.13;;;;;;;8.12;100.00;98817.91;4971820;28;20078;-75
2021/10/20 01:38:40;;;;;;;60.63;31.60;;;;;;;8.14;100.00;98825.84;4971617;28;20391;-75
2021/10/20 01:41:05;;;;;;;78.63;35.28;;;;;;;8.16;100.00;98808.16;4971517;28;20039;-75
2021/10/20 01:43:38;;;;;;;121.20;35.00;;;;;;;8.25;100.00;98806.59;4964495;28;20021;-74
2021/10/20 01:46:03;;;;;;;95.63;34.13;;;;;;;8.22;100.00;98796.22;4971564;28;20046;-75
2021/10/20 01:48:29;;;;;;;133.63;36.75;;;;;;;8.25;100.00;98798.41;4971950;28;20035;-75
2021/10/20 01:50:54;;;;;;;134.55;37.00;;;;;;;8.26;100.00;98800.06;4962500;28;20039;-75
2021/10/20 01:53:20;;;;;;;167.40;38.55;;;;;;;8.25;100.00;98798.41;4951612;29;20063;-75
2021/10/20 01:55:45;;;;;;;183.75;41.75;;;;;;;8.16;100.00;98799.97;4953749;29;20015;-75
2021/10/20 01:58:10;;;;;;;162.20;36.83;;;;;;;8.14;100.00;98793.16;4954487;29;20395;-76
2021/10/20 02:00:36;;;;;;;218.18;42.63;;;;;;;8.21;100.00;98794.56;4955819;28;20436;-76
2021/10/20 02:03:01;;;;;;;182.02;39.72;;;;;;;8.24;100.00;98790.50;4952833;28;20047;-76
2021/10/20 02:05:26;;;;;;;98.13;36.55;;;;;;;8.22;100.00;98793.50;4955320;29;20031;-75
2021/10/20 02:07:52;;;;;;;165.65;38.55;;;;;;;8.24;100.00;98791.31;4955310;29;20042;-76
2021/10/20 02:10:17;;;;;;;303.95;43.00;;;;;;;8.11;100.00;98777.31;4955033;29;20382;-75
2021/10/20 02:12:43;;;;;;;455.63;50.95;;;;;;;7.99;100.00;98781.00;4949552;29;20035;-75
2021/10/20 02:15:09;;;;;;;505.77;55.75;;;;;;;8.01;100.00;98786.22;4954954;28;20031;-76
2021/10/20 02:17:35;;;;;;;398.60;50.22;;;;;;;8.02;100.00;98780.50;4955117;28;20031;-76
2021/10/20 02:20:00;;;;;;;357.38;48.03;;;;;;;7.95;100.00;98773.63;4955248;29;20506;-75
2021/10/20 02:22:26;;;;;;;297.20;50.03;;;;;;;7.91;100.00;98770.59;4963213;28;20086;-76
2021/10/20 02:24:51;;;;;;;324.20;48.83;;;;;;;7.95;100.00;98770.91;4969885;28;20078;-76
2021/10/20 02:27:17;;;;;;;670.22;64.03;;;;;;;8.05;100.00;98779.16;4961857;28;20031;-76
2021/10/20 02:29:42;;;;;;;474.55;53.78;;;;;;;8.07;100.00;98772.38;4955025;28;20030;-76
2021/10/20 02:32:08;;;;;;;161.20;44.78;;;;;;;8.09;100.00;98772.94;4954790;29;20869;-75
2021/10/20 02:34:34;;;;;;;409.80;55.92;;;;;;;8.17;100.00;98768.94;4937527;29;20031;-75
2021/10/20 02:36:59;;;;;;;254.75;43.60;;;;;;;8.17;100.00;98771.66;4955140;29;20019;-75
2021/10/20 02:39:24;;;;;;;230.65;42.95;;;;;;;8.19;100.00;98768.66;4954431;28;20515;-75
2021/10/20 02:41:50;;;;;;;217.85;41.55;;;;;;;8.18;100.00;98756.09;4954841;29;20082;-75
2021/10/20 02:44:15;;;;;;;252.10;43.28;;;;;;;8.16;100.00;98761.81;4961679;28;20023;-75
2021/10/20 02:46:41;;;;;;;158.57;38.22;;;;;;;8.18;100.00;98758.81;4969245;28;20474;-75
2021/10/20 02:49:06;;;;;;;186.13;37.10;;;;;;;8.20;100.00;98771.13;4955842;28;20448;-75
2021/10/20 02:51:32;;;;;;;188.43;38.08;;;;;;;8.23;100.00;98762.44;4960329;29;20504;-76
2021/10/20 02:53:58;;;;;;;95.25;35.55;;;;;;;8.24;100.00;98764.06;4962432;29;20046;-76
2021/10/20 02:56:24;;;;;;;111.38;37.63;;;;;;;8.26;100.00;98753.75;4964504;28;20032;-75
2021/10/20 02:58:50;;;;;;;166.18;42.25;;;;;;;8.27;100.00;98762.75;4954509;28;20031;-75
2021/10/20 03:01:15;;;;;;;165.38;42.30;;;;;;;8.29;100.00;98764.16;4961048;28;20035;-75
2021/10/20 03:03:41;;;;;;;207.77;41.42;;;;;;;8.36;100.00;98772.13;4954566;28;20048;-75
2021/10/20 03:06:06;;;;;;;80.43;34.78;;;;;;;8.33;100.00;98765.25;4952459;29;20019;-75
2021/10/20 03:08:32;;;;;;;187.57;39.50;;;;;;;8.32;100.00;98760.91;4953878;28;20370;-74
2021/10/20 03:10:57;;;;;;;229.85;39.33;;;;;;;8.34;100.00;98761.44;4953669;29;20015;-74
2021/10/20 03:13:23;;;;;;;142.23;34.33;;;;;;;8.38;100.00;98764.47;4959996;28;20035;-76
2021/10/20 03:15:48;;;;;;;250.40;37.67;;;;;;;8.37;100.00;98771.84;4951806;28;20047;-75
2021/10/20 03:18:14;;;;;;;109.43;33.60;;;;;;;8.37;100.00;98766.38;4954333;28;20042;-76
2021/10/20 03:20:39;;;;;;;303.17;43.97;;;;;;;8.35;100.00;98762.28;4953705;29;20043;-76
2021/10/20 03:23:05;;;;;;;134.88;36.80;;;;;;;8.33;100.00;98759.81;4953634;29;20023;-75
2021/10/20 03:25:33;;;;;;;86.45;30.15;;;;;;;8.23;100.00;98762.44;4953837;29;20031;-75
2021/10/20 03:27:59;;;;;;;46.40;27.67;;;;;;;8.15;100.00;98756.63;4953976;29;20534;-75
2021/10/20 03:30:24;;;;;;;160.13;30.92;;;;;;;7.98;100.00;98754.03;4953592;29;20055;-76
2021/10/20 03:32:50;;;;;;;87.18;29.33;;;;;;;7.93;100.00;98749.34;4953646;29;20027;-75
2021/10/20 03:35:17;;;;;;;52.00;26.15;;;;;;;7.90;100.00;98755.31;4953708;29;20425;-75
2021/10/20 03:37:42;;;;;;;63.50;27.77;;;;;;;7.88;100.00;98754.78;4953563;29;20476;-75
2021/10/20 03:40:09;;;;;;;45.15;26.55;;;;;;;7.94;100.00;98755.63;4953525;29;20034;-75
2021/10/20 03:42:35;;;;;;;89.03;30.30;;;;;;;7.79;100.00;98750.88;4953833;29;20374;-75
2021/10/20 03:45:01;;;;;;;62.70;27.10;;;;;;;7.86;100.00;98743.28;4955340;29;20063;-76
2021/10/20 03:47:27;;;;;;;84.05;29.73;;;;;;;7.81;100.00;98753.31;4955898;29;20057;-76
2021/10/20 03:49:52;;;;;;;89.95;28.17;;;;;;;7.85;100.00;98746.28;4955551;29;20082;-75
2021/10/20 03:52:18;;;;;;;120.13;32.13;;;;;;;7.86;100.00;98748.75;4953846;29;20023;-75
2021/10/20 03:54:44;;;;;;;85.85;33.60;;;;;;;7.86;100.00;98751.47;4954153;29;20023;-75
2021/10/20 03:57:10;;;;;;;82.88;32.08;;;;;;;7.84;100.00;98740.00;4954242;29;20042;-74
2021/10/20 03:59:35;;;;;;;61.30;26.15;;;;;;;7.82;100.00;98747.63;4952981;29;20045;-75
2021/10/20 04:02:01;;;;;;;52.75;24.73;;;;;;;7.77;100.00;98741.31;4953053;29;20420;-75
2021/10/20 04:04:26;;;;;;;64.90;23.33;;;;;;;7.74;100.00;98739.91;4952766;28;20038;-75
2021/10/20 04:06:51;;;;;;;89.53;24.52;;;;;;;7.68;100.00;98748.28;4953368;28;20035;-76
2021/10/20 04:09:17;;;;;;;44.13;22.48;;;;;;;7.68;100.00;98745.56;4953371;28;20038;-76
2021/10/20 04:11:43;;;;;;;66.97;25.67;;;;;;;7.65;100.00;98751.53;4960124;28;20029;-75
2021/10/20 04:14:08;;;;;;;64.20;24.10;;;;;;;7.64;100.00;98747.19;4971371;28;20037;-75
2021/10/20 04:16:33;;;;;;;78.07;24.63;;;;;;;7.56;100.00;98751.16;4972437;28;20423;-76
2021/10/20 04:18:59;;;;;;;70.68;24.98;;;;;;;7.54;100.00;98748.72;4963306;28;20031;-75
2021/10/20 04:21:24;;;;;;;61.65;25.35;;;;;;;7.50;100.00;98742.13;4960787;28;20038;-75
2021/10/20 04:23:50;;;;;;;100.00;29.63;;;;;;;7.50;100.00;98744.84;4962115;28;20058;-76
2021/10/20 04:26:15;;;;;;;106.35;29.98;;;;;;;7.46;100.00;98743.72;4960547;28;20027;-75
2021/10/20 04:28:40;;;;;;;119.47;29.15;;;;;;;7.42;100.00;98737.13;4961011;28;20030;-76
2021/10/20 04:31:06;;;;;;;143.25;28.40;;;;;;;7.44;100.00;98737.72;4961984;28;20023;-75
2021/10/20 04:33:31;;;;;;;131.30;31.38;;;;;;;7.38;100.00;98730.56;4959855;28;20067;-76
2021/10/20 04:35:57;;;;;;;109.70;31.75;;;;;;;7.40;100.00;98733.03;4960477;28;20023;-76
2021/10/20 04:38:22;;;;;;;81.30;28.63;;;;;;;7.48;100.00;98733.41;4960766;28;20480;-75
2021/10/20 04:40:48;;;;;;;91.28;28.77;;;;;;;7.44;100.00;98726.81;4961965;28;20477;-75
2021/10/20 04:43:13;;;;;;;57.30;26.40;;;;;;;7.39;100.00;98721.31;4962283;28;20042;-75
2021/10/20 04:45:39;;;;;;;154.05;31.85;;;;;;;7.37;100.00;98723.47;4960663;28;20027;-75
2021/10/20 04:48:05;;;;;;;122.30;29.67;;;;;;;7.34;100.00;98718.53;4958214;28;20049;-76
2021/10/20 04:50:30;;;;;;;96.13;30.05;;;;;;;7.30;100.00;98709.25;4950299;28;20552;-75
2021/10/20 04:52:56;;;;;;;68.32;29.40;;;;;;;7.32;100.00;98720.72;4951256;28;20029;-75
2021/10/20 04:55:22;;;;;;;175.05;32.80;;;;;;;7.27;100.00;98711.66;4953104;28;20460;-76
2021/10/20 04:57:49;;;;;;;213.85;31.92;;;;;;;7.27;100.00;98712.47;4948412;28;20027;-75
2021/10/20 05:00:15;;;;;;;156.90;31.48;;;;;;;7.25;100.00;98711.91;4964005;28;20091;-75
2021/10/20 05:02:40;;;;;;;118.45;31.42;;;;;;;7.27;100.00;98717.91;4973797;28;20101;-76
2021/10/20 05:05:06;;;;;;;75.93;31.30;;;;;;;7.29;100.00;98712.22;4962257;28;20023;-77
2021/10/20 05:07:32;;;;;;;100.35;34.58;;;;;;;7.27;100.00;98700.75;4948508;28;20023;-76
2021/10/20 05:09:58;;;;;;;67.80;31.23;;;;;;;7.25;100.00;98709.19;4953028;28;20027;-73
2021/10/20 05:12:23;;;;;;;59.75;31.52;;;;;;;7.29;100.00;98706.78;4966115;28;20041;-80
2021/10/20 05:14:48;;;;;;;62.38;30.88;;;;;;;7.25;100.00;98701.03;4990452;28;20034;-80
2021/10/20 05:17:14;;;;;;;74.38;30.15;;;;;;;7.21;100.00;98708.06;4983089;28;20011;-79
2021/10/20 05:19:39;;;;;;;72.68;29.63;;;;;;;7.20;100.00;98714.59;4983937;28;20031;-78
2021/10/20 05:22:06;;;;;;;44.45;29.38;;;;;;;7.18;100.00;98716.72;4971555;28;20023;-79
2021/10/20 05:24:34;;;;;;;53.00;28.73;;;;;;;7.26;100.00;98710.84;4977224;28;20007;-76
2021/10/20 05:27:01;;;;;;;54.30;26.00;;;;;;;7.27;100.00;98706.22;4991620;28;20015;-78
2021/10/20 05:29:32;;;;;;;83.65;27.70;;;;;;;7.24;100.00;98710.25;4968624;28;20026;-81
2021/10/20 05:31:58;;;;;;;65.38;26.77;;;;;;;7.13;100.00;98713.97;4963084;28;20031;-74
2021/10/20 05:34:25;;;;;;;79.90;29.60;;;;;;;7.05;100.00;98710.88;4958762;28;20145;-72
2021/10/20 05:36:50;;;;;;;57.40;26.70;;;;;;;6.98;100.00;98711.06;4950666;29;20480;-71
2021/10/20 05:39:15;;;;;;;83.88;27.65;;;;;;;6.98;100.00;98708.34;4965535;28;20035;-76
2021/10/20 05:41:41;;;;;;;52.58;27.10;;;;;;;6.96;100.00;98695.00;4997860;28;20010;-77
2021/10/20 05:44:07;;;;;;;43.47;26.50;;;;;;;6.99;100.00;98693.66;4972674;28;20133;-77
2021/10/20 05:46:32;;;;;;;52.25;27.90;;;;;;;6.94;100.00;98693.59;4974897;28;20027;-77
2021/10/20 05:48:58;;;;;;;43.88;25.50;;;;;;;7.02;100.00;98697.78;4975372;28;20042;-76
2021/10/20 05:51:23;;;;;;;87.93;28.67;;;;;;;7.06;100.00;98698.91;4960157;28;20043;-76
2021/10/20 05:53:48;;;;;;;58.17;27.90;;;;;;;7.07;100.00;98698.66;4956127;28;20090;-76
2021/10/20 05:56:14;;;;;;;71.03;27.40;;;;;;;7.12;100.00;98701.44;4939562;28;20027;-76
2021/10/20 05:58:39;;;;;;;101.30;27.98;;;;;;;7.14;100.00;98706.63;4958150;28;20043;-77
2021/10/20 06:01:05;;;;;;;51.75;25.40;;;;;;;7.15;100.00;98714.53;4958034;28;20037;-78
2021/10/20 06:03:30;;;;;;;82.85;24.83;;;;;;;7.25;100.00;98709.19;4958979;28;20038;-79
2021/10/20 06:05:56;;;;;;;89.07;26.17;;;;;;;7.21;100.00;98712.66;4962404;28;20113;-80
2021/10/20 06:08:21;;;;;;;91.82;26.23;;;;;;;7.03;100.00;98708.41;4983327;28;20458;-79
2021/10/20 06:10:47;;;;;;;67.22;24.50;;;;;;;7.06;100.00;98699.72;4988454;28;20038;-81
2021/10/20 06:13:12;;;;;;;60.35;23.30;;;;;;;7.12;100.00;98695.16;4992488;28;20031;-79
2021/10/20 06:15:41;;;;;;;40.65;23.08;;;;;;;7.16;100.00;98694.41;4992832;28;20015;-79
2021/10/20 06:18:06;;;;;;;66.05;21.92;;;;;;;7.10;100.00;98706.31;4995206;28;20038;-79
2021/10/20 06:20:32;;;;;;;97.10;24.63;;;;;;;6.95;100.00;98709.66;5000145;28;20046;-78
2021/10/20 06:22:57;;;;;;;85.30;25.45;;;;;;;6.93;100.00;98710.97;4998539;28;20082;-78
2021/10/20 06:25:23;;;;;;;70.75;25.70;;;;;;;7.08;100.00;98715.81;4993963;28;20558;-79
2021/10/20 06:27:48;;;;;;;67.00;24.33;;;;;;;7.16;100.00;98710.72;5001169;28;20011;-76
2021/10/20 06:30:14;;;;;;;51.35;23.17;;;;;;;7.37;100.00;98711.75;5001306;28;20010;-75
2021/10/20 06:32:42;;;;;;;43.88;23.48;;;;;;;7.61;100.00;98715.84;5000982;28;20019;-77
2021/10/20 06:35:09;;;;;;;87.30;23.42;;;;;;;7.72;100.00;98719.47;4999768;28;20058;-77
2021/10/20 06:37:34;;;;;;;66.15;22.52;;;;;;;7.81;100.00;98720.66;5001199;28;20027;-79
2021/10/20 06:40:01;;;;;;;95.28;22.83;;;;;;;7.95;100.00;98714.53;5001119;28;20031;-76
2021/10/20 06:42:27;;;;;;;46.60;21.13;;;;;;;7.88;100.00;98707.63;5001179;28;20043;-76
2021/10/20 06:44:54;;;;;;;32.00;16.83;;;;;;;7.83;100.00;98726.69;4997198;28;20049;-79
2021/10/20 06:47:20;;;;;;;23.98;16.10;;;;;;;7.89;100.00;98725.63;5001173;28;20026;-78
2021/10/20 06:49:45;;;;;;;35.53;17.38;;;;;;;8.14;100.00;98723.13;4995427;28;20027;-75
2021/10/20 06:52:11;;;;;;;33.03;19.00;;;;;;;8.35;100.00;98713.22;5001032;28;20019;-75
2021/10/20 06:54:36;;;;;;;31.83;16.33;;;;;;;8.91;100.00;98728.81;5000754;28;20018;-76
2021/10/20 06:57:04;;;;;;;26.25;13.73;;;;;;;9.19;100.00;98724.03;5001150;28;20079;-76
2021/10/20 06:59:30;;;;;;;20.02;13.68;;;;;;;9.51;100.00;98720.03;5000503;28;20026;-76
2021/10/20 07:01:55;;;;;;;19.88;13.10;;;;;;;10.11;100.00;98718.47;5000760;28;20018;-76
2021/10/20 07:04:21;;;;;;;31.17;15.13;;;;;;;10.72;100.00;98722.81;4993206;28;20022;-75
2021/10/20 07:06:50;;;;;;;27.05;14.68;;;;;;;11.93;95.55;98729.69;5000906;28;20019;-77
2021/10/20 07:09:15;;;;;;;26.30;12.57;;;;;;;13.06;86.21;98733.84;4992361;28;20015;-79
2021/10/20 07:11:40;;;;;;;19.98;13.55;;;;;;;13.67;81.58;98733.91;5000188;28;20015;-75
2021/10/20 07:14:06;;;;;;;21.85;13.82;;;;;;;14.09;78.13;98727.53;5000368;28;20039;-77
2021/10/20 07:16:34;;;;;;;28.20;14.10;;;;;;;14.90;73.82;98727.78;4999335;28;20014;-79
2021/10/20 07:18:59;;;;;;;25.38;14.45;;;;;;;15.00;72.87;98724.81;5000095;28;20030;-79
2021/10/20 07:21:24;;;;;;;21.73;13.05;;;;;;;16.12;68.24;98727.97;4999909;28;20007;-81
2021/10/20 07:23:50;;;;;;;21.90;12.55;;;;;;;16.68;66.03;98719.97;4998697;28;20003;-80
2021/10/20 07:26:20;;;;;;;22.25;13.82;;;;;;;17.14;63.92;98731.41;4998119;28;20026;-81
2021/10/20 07:28:46;;;;;;;23.88;14.27;;;;;;;17.47;62.08;98728.28;4992218;28;20023;-83
2021/10/20 07:31:11;;;;;;;30.38;17.00;;;;;;;17.70;61.89;98724.28;4998143;28;20027;-83
2021/10/20 07:33:37;;;;;;;28.05;16.33;;;;;;;17.85;60.75;98726.59;4993153;28;20081;-84
2021/10/20 07:36:02;;;;;;;22.95;15.68;;;;;;;18.53;59.37;98722.22;4987004;28;20066;-81
2021/10/20 07:38:28;;;;;;;30.30;17.30;;;;;;;19.25;56.95;98720.19;4979962;28;20050;-84
2021/10/20 07:40:53;;;;;;;28.17;14.80;;;;;;;19.15;56.39;98725.28;4984485;28;20123;-81
2021/10/20 07:43:19;;;;;;;22.27;14.60;;;;;;;19.29;55.55;98730.63;4988003;28;20066;-83
2021/10/20 07:45:46;;;;;;;23.70;14.50;;;;;;;19.01;56.68;98725.53;4982703;28;20030;-82
2021/10/20 07:48:11;;;;;;;19.63;12.40;;;;;;;19.78;54.56;98716.00;4984238;28;20023;-82
2021/10/20 07:50:37;;;;;;;19.52;13.25;;;;;;;19.60;54.49;98712.53;4978475;28;20055;-82
2021/10/20 07:53:03;;;;;;;22.40;13.65;;;;;;;19.04;56.01;98719.31;4975536;28;20062;-84
2021/10/20 07:55:31;;;;;;;23.00;12.52;;;;;;;19.24;56.54;98712.19;4977698;28;20034;-83
2021/10/20 07:57:57;;;;;;;22.45;14.75;;;;;;;19.44;55.55;98721.78;4974769;28;20122;-84
2021/10/20 08:00:23;;;;;;;22.73;14.57;;;;;;;19.61;55.71;98718.88;4977444;28;20094;-83
2021/10/20 08:02:49;;;;;;;22.48;14.63;;;;;;;19.58;55.64;98714.81;4977681;28;20031;-84
2021/10/20 08:05:14;;;;;;;38.50;14.80;;;;;;;19.80;55.10;98718.47;4977742;28;20049;-84
2021/10/20 08:07:47;;;;;;;19.27;12.93;;;;;;;19.85;55.06;98715.47;4977028;28;20109;-83
2021/10/20 08:10:18;;;;;;;23.85;13.25;;;;;;;19.67;55.35;98700.91;4977368;28;20534;-85
2021/10/20 08:12:44;;;;;;;16.77;12.90;;;;;;;19.83;55.30;98704.69;4977643;28;20092;-82
2021/10/20 08:15:12;;;;;;;22.08;13.35;;;;;;;20.33;53.84;98703.88;4978446;28;20027;-86
2021/10/20 08:17:37;;;;;;;29.42;14.85;;;;;;;18.90;57.73;98701.25;4977246;28;20075;-84
2021/10/20 08:20:06;;;;;;;28.30;13.95;;;;;;;17.96;61.22;98689.13;4982447;28;20046;-84
2021/10/20 08:22:31;;;;;;;25.00;14.68;;;;;;;18.46;60.55;98686.66;4986334;28;20035;-88
2021/10/20 08:24:57;;;;;;;24.80;14.57;;;;;;;19.18;58.24;98686.63;4982816;28;20026;-88
2021/10/20 08:27:22;;;;;;;24.25;14.15;;;;;;;19.40;57.41;98682.78;4980459;28;20500;-82
2021/10/20 08:29:48;;;;;;;24.23;14.95;;;;;;;19.72;57.31;98678.50;4978557;28;20478;-88
2021/10/20 08:32:13;;;;;;;22.80;14.98;;;;;;;19.84;56.87;98680.53;4978782;28;20039;-87
2021/10/20 08:34:39;;;;;;;19.40;14.77;;;;;;;20.22;55.52;98675.63;4978301;28;20033;-87
2021/10/20 08:37:04;;;;;;;20.05;16.85;;;;;;;18.91;59.60;98675.97;4979075;28;20070;-88
2021/10/20 08:39:30;;;;;;;22.52;17.38;;;;;;;19.89;56.99;98672.00;4978114;28;20170;-86
2021/10/20 08:41:57;;;;;;;25.55;18.25;;;;;;;20.86;54.20;98680.75;4978828;28;20062;-87
2021/10/20 08:44:23;;;;;;;30.95;18.65;;;;;;;20.95;54.65;98679.50;4979194;28;20027;-87
2021/10/20 08:46:51;;;;;;;27.08;19.00;;;;;;;21.91;52.44;98666.72;4977961;28;20033;-88
2021/10/20 08:49:17;;;;;;;32.97;19.77;;;;;;;21.74;52.90;98670.56;4979344;28;20031;-88
2021/10/20 08:51:44;;;;;;;51.88;36.40;;;;;;;21.63;52.93;98668.59;4978066;28;20163;-86
2021/10/20 08:54:10;;;;;;;59.42;43.33;;;;;;;22.41;49.99;98661.44;4976117;28;20498;-85
2021/10/20 08:56:36;;;;;;;68.53;47.42;;;;;;;22.81;49.50;98668.91;4978364;28;20015;-83
2021/10/20 08:59:02;;;;;;;60.78;44.75;;;;;;;23.27;47.34;98659.75;4976649;28;20023;-86
2021/10/20 09:01:27;;;;;;;67.28;45.75;;;;;;;22.89;47.81;98656.78;4976985;28;20023;-86
2021/10/20 09:03:53;;;;;;;68.57;45.75;;;;;;;23.40;46.57;98654.88;4976767;28;20045;-85
2021/10/20 09:06:18;;;;;;;64.00;47.42;;;;;;;23.23;46.63;98650.47;4976741;28;20109;-84
2021/10/20 09:08:45;;;;;;;67.25;48.90;;;;;;;22.74;48.04;98652.78;4976505;28;20125;-83
2021/10/20 09:11:34;;;;;;;68.47;47.55;;;;;;;23.47;46.18;98649.47;4977044;28;20105;-83
2021/10/20 09:14:05;;;;;;;67.55;50.83;;;;;;;22.97;46.43;98655.78;4977951;28;20122;-85
2021/10/20 09:16:32;;;;;;;70.35;50.17;;;;;;;22.73;47.65;98647.56;4979783;28;20019;-81
2021/10/20 09:18:59;;;;;;;71.65;51.38;;;;;;;23.30;46.29;98652.63;4980662;28;20026;-84
2021/10/20 09:21:26;;;;;;;71.78;51.88;;;;;;;23.09;47.63;98641.72;4981542;28;20045;-84
2021/10/20 09:23:52;;;;;;;73.30;53.30;;;;;;;23.75;45.54;98652.09;4980495;28;20031;-83
2021/10/20 09:26:20;;;;;;;77.35;52.80;;;;;;;22.92;47.97;98647.69;4980739;28;20014;-85
2021/10/20 09:28:46;;;;;;;82.10;56.60;;;;;;;22.69;48.23;98646.66;4981534;28;20031;-86
2021/10/20 09:31:11;;;;;;;75.43;54.63;;;;;;;21.89;50.00;98644.00;4981614;28;20109;-84
2021/10/20 09:33:40;;;;;;;82.43;55.50;;;;;;;21.95;49.74;98645.38;4992311;28;20003;-81
2021/10/20 09:36:14;;;;;;;81.32;57.20;;;;;;;21.94;50.50;98645.69;4999075;28;20031;-85
2021/10/20 09:38:51;;;;;;;81.80;58.00;;;;;;;21.76;50.86;98647.94;4997651;28;20018;-84
2021/10/20 09:41:18;;;;;;;80.30;57.60;;;;;;;21.18;51.43;98649.25;4996968;28;20026;-83
2021/10/20 09:43:53;;;;;;;80.55;56.95;;;;;;;21.61;52.18;98645.88;4984167;28;20033;-85
2021/10/20 09:46:38;;;;;;;83.32;59.53;;;;;;;22.24;50.02;98639.41;4982057;28;20120;-86
2021/10/20 09:49:16;;;;;;;82.50;55.72;;;;;;;22.91;48.27;98632.09;4979839;28;20039;-85
2021/10/20 09:51:42;;;;;;;80.97;57.88;;;;;;;22.32;49.45;98627.31;4981857;28;20054;-85
2021/10/20 09:54:20;;;;;;;81.40;54.78;;;;;;;23.29;46.98;98632.28;4982318;28;20031;-86
2021/10/20 09:56:52;;;;;;;77.88;53.95;;;;;;;23.38;46.75;98621.72;4983626;28;20023;-85
2021/10/20 09:59:18;;;;;;;80.30;54.13;;;;;;;21.60;49.85;98622.78;4981200;28;20045;-87
2021/10/20 10:01:45;;;;;;;72.03;54.58;;;;;;;22.23;48.74;98625.84;4981324;28;20094;-87
2021/10/20 10:04:12;;;;;;;73.50;53.50;;;;;;;21.61;49.69;98631.94;4980916;28;20011;-86
2021/10/20 10:06:39;;;;;;;85.25;53.42;;;;;;;21.91;49.15;98624.13;4980203;28;20027;-83
2021/10/20 10:09:08;;;;;;;75.15;53.53;;;;;;;22.03;49.00;98616.53;4980234;28;20019;-86
2021/10/20 10:11:37;;;;;;;73.00;49.78;;;;;;;21.96;49.00;98624.66;4981217;28;20109;-86
2021/10/20 10:14:05;;;;;;;71.57;49.67;;;;;;;22.74;47.11;98619.31;4982526;28;20023;-86
2021/10/20 10:16:34;;;;;;;71.32;50.50;;;;;;;22.31;47.86;98625.69;4974586;28;20011;-87
2021/10/20 10:19:01;;;;;;;71.25;48.15;;;;;;;23.66;45.60;98620.78;4981744;28;20023;-85
2021/10/20 10:21:32;;;;;;;71.07;50.40;;;;;;;22.57;46.43;98610.44;4982533;28;20031;-87
2021/10/20 10:23:59;;;;;;;69.35;49.45;;;;;;;22.73;46.89;98614.91;4982192;28;20089;-87
2021/10/20 10:26:26;;;;;;;75.60;49.67;;;;;;;22.60;46.98;98601.38;4973300;28;20460;-85
2021/10/20 10:29:24;;;;;;;66.47;47.47;;;;;;;21.78;48.15;98603.81;4980947;28;20027;-86
2021/10/20 10:31:51;;;;;;;72.65;49.72;;;;;;;21.04;50.20;98602.28;4945091;28;20054;-86
2021/10/20 10:34:18;;;;;;;72.55;47.40;;;;;;;21.85;48.85;98604.03;4981557;28;20030;-85
2021/10/20 10:36:52;;;;;;;68.78;46.30;;;;;;;21.56;49.12;98612.69;4980381;28;20112;-86
2021/10/20 10:39:21;;;;;;;66.28;46.40;;;;;;;21.78;48.94;98601.84;4980184;28;20090;-85
2021/10/20 10:41:48;;;;;;;66.80;46.35;;;;;;;21.86;49.22;98594.50;4980095;28;20113;-86
2021/10/20 10:44:25;;;;;;;66.10;44.53;;;;;;;22.75;46.67;98603.38;4954688;28;20035;-87
2021/10/20 10:47:17;;;;;;;70.43;44.38;;;;;;;23.09;45.98;98591.47;4979809;28;20027;-86
2021/10/20 10:49:54;;;;;;;60.22;42.83;;;;;;;22.30;47.16;98585.03;4979595;28;20027;-86
2021/10/20 10:52:21;;;;;;;64.43;42.95;;;;;;;22.27;48.04;98582.97;4979513;28;20034;-88
2021/10/20 10:55:14;;;;;;;65.78;43.90;;;;;;;21.14;49.62;98582.38;4979948;28;20498;-83
2021/10/20 10:57:59;;;;;;;65.40;43.10;;;;;;;20.90;51.10;98574.00;4978408;28;20062;-85
2021/10/20 11:00:26;;;;;;;67.25;46.03;;;;;;;20.47;51.87;98571.75;4971061;28;20509;-80
2021/10/20 11:02:59;;;;;;;72.10;44.20;;;;;;;20.05;53.47;98565.47;4979743;28;20034;-85
2021/10/20 11:05:32;;;;;;;63.17;43.50;;;;;;;19.67;54.86;98565.66;4982701;28;20011;-84
2021/10/20 11:08:10;;;;;;;61.97;42.20;;;;;;;19.13;56.41;98556.44;4980854;28;20022;-85
2021/10/20 11:10:38;;;;;;;72.03;44.55;;;;;;;19.13;56.75;98556.44;4985676;28;20025;-84
2021/10/20 11:13:04;;;;;;;67.18;45.45;;;;;;;19.04;57.40;98552.91;4983380;28;20022;-88